Coffeyville, Kansas
Current Conditions -  °F | °C
As of 3:52 AM on Thursday 23 Oct 2014 (Local Time) from KCFV Reporting Station
Light Rain Light Rain  
Wind Chill: 61°   Ceiling: 11000
Heat Index: 61°   Visibility: 10mi
Dew Point: 57°   Wind: 8mph
Humidity: 87%   Direction: 170°S
Pressure: 30.11"   Gusts: NA
Location:  37.03°N, 95.62°W
Report Text: KCFV 230852Z AUTO 17007KT 10SM -RA SCT031 SCT039 OVC110 16/14 A3011 RMK AO2 RAE0759B42 SLP192 P0000 60001 T01610139 58000
Loading
Personal Weather Stations






























Interactive Weather Map New forecast layout! Learn more

10-Day Weather Forecast

Advertisements
Track Severe Weather on mobile